Time;durP1;ratioP1;P1;durP2;ratioP2;P2;SDS_P1;SDS_P2;PMS_P1;PMS_P2;Temp;Humidity;BMP_temperature;BMP_pressure;BME280_temperature;BME280_humidity;BME280_pressure;Samples;Min_cycle;Max_cycle;Signal;HPM_P1;HPM_P2
2023/10/23 00:00:56;;;;;;;5.13;1.43;;;;;;;;;;5030848;28;20021;-93
2023/10/23 00:03:21;;;;;;;4.32;0.80;;;;;;;;;;5032735;28;20249;-93
2023/10/23 00:05:46;;;;;;;8.17;1.77;;;;;;;;;;5033726;28;20026;-93
2023/10/23 00:08:12;;;;;;;7.23;1.23;;;;;;;;;;5032375;28;20270;-93
2023/10/23 00:10:37;;;;;;;6.87;1.40;;;;;;;;;;5032218;28;20262;-93
2023/10/23 00:13:02;;;;;;;3.88;1.17;;;;;;;;;;5031803;28;20255;-92
2023/10/23 00:15:27;;;;;;;6.90;1.20;;;;;;;;;;5031788;28;20028;-93
2023/10/23 00:17:53;;;;;;;4.75;0.98;;;;;;;;;;5030656;28;20021;-92
2023/10/23 00:20:18;;;;;;;6.55;1.27;;;;;;;;;;5030474;28;20033;-93
2023/10/23 00:22:43;;;;;;;9.25;1.30;;;;;;;;;;5031540;28;20114;-93
2023/10/23 00:25:08;;;;;;;2.42;0.90;;;;;;;;;;5031398;28;20533;-93
2023/10/23 00:27:34;;;;;;;7.20;1.13;;;;;;;;;;5032777;28;20029;-93
2023/10/23 00:30:00;;;;;;;8.03;1.40;;;;;;;;;;5032407;28;20317;-93
2023/10/23 00:32:25;;;;;;;5.80;1.17;;;;;;;;;;5031382;28;20298;-93
2023/10/23 00:34:50;;;;;;;3.00;0.90;;;;;;;;;;5031417;28;20052;-92
2023/10/23 00:37:15;;;;;;;5.00;1.52;;;;;;;;;;5032395;28;20358;-92
2023/10/23 00:39:41;;;;;;;6.03;0.97;;;;;;;;;;5032693;28;20056;-93
2023/10/23 00:42:06;;;;;;;6.30;0.83;;;;;;;;;;5032559;28;20246;-93
2023/10/23 00:44:32;;;;;;;5.63;1.30;;;;;;;;;;5032314;28;20251;-93
2023/10/23 00:46:57;;;;;;;5.50;1.57;;;;;;;;;;5032171;28;20029;-93
2023/10/23 00:49:23;;;;;;;8.10;2.00;;;;;;;;;;5031024;28;20321;-93
2023/10/23 00:51:48;;;;;;;4.43;1.33;;;;;;;;;;5031767;28;20026;-93
2023/10/23 00:54:14;;;;;;;8.30;1.30;;;;;;;;;;5032377;28;20423;-93
2023/10/23 00:56:39;;;;;;;9.00;1.45;;;;;;;;;;5032145;28;20101;-93
2023/10/23 00:59:05;;;;;;;4.90;0.90;;;;;;;;;;5031066;28;20406;-92
2023/10/23 01:01:32;;;;;;;9.15;1.10;;;;;;;;;;5030879;28;20061;-93
2023/10/23 01:03:59;;;;;;;5.30;1.17;;;;;;;;;;5030921;28;20040;-93
2023/10/23 01:06:25;;;;;;;5.32;1.35;;;;;;;;;;5032061;28;20479;-92
2023/10/23 01:08:50;;;;;;;5.22;1.33;;;;;;;;;;5030665;28;20021;-93
2023/10/23 01:11:15;;;;;;;7.22;2.15;;;;;;;;;;5030952;28;20357;-93
2023/10/23 01:13:40;;;;;;;9.15;1.98;;;;;;;;;;5031976;28;20025;-93
2023/10/23 01:16:05;;;;;;;16.37;2.07;;;;;;;;;;5030701;28;20045;-92
2023/10/23 01:18:31;;;;;;;10.00;2.08;;;;;;;;;;5030862;28;20349;-92
2023/10/23 01:20:56;;;;;;;10.60;2.58;;;;;;;;;;5031851;28;20052;-93
2023/10/23 01:23:24;;;;;;;6.32;1.98;;;;;;;;;;5031937;28;20034;-91
2023/10/23 01:25:50;;;;;;;16.38;2.40;;;;;;;;;;5030767;28;20380;-93
2023/10/23 01:28:15;;;;;;;7.90;2.42;;;;;;;;;;5031910;28;20033;-92
2023/10/23 01:30:40;;;;;;;9.37;2.33;;;;;;;;;;5031890;28;20490;-93
2023/10/23 01:33:05;;;;;;;8.20;2.83;;;;;;;;;;5031761;28;20729;-92
2023/10/23 01:35:30;;;;;;;4.85;1.50;;;;;;;;;;5030476;28;20778;-92
2023/10/23 01:37:56;;;;;;;6.73;1.57;;;;;;;;;;5031840;28;20463;-92
2023/10/23 01:40:21;;;;;;;5.65;1.23;;;;;;;;;;5031840;28;20679;-93
2023/10/23 01:42:49;;;;;;;5.53;1.27;;;;;;;;;;5031993;28;20025;-93
2023/10/23 01:45:14;;;;;;;8.07;1.42;;;;;;;;;;5031921;28;20028;-93
2023/10/23 01:47:39;;;;;;;5.18;1.58;;;;;;;;;;5031957;28;20108;-92
2023/10/23 01:50:05;;;;;;;2.35;1.10;;;;;;;;;;5031645;28;20056;-92
2023/10/23 01:52:30;;;;;;;5.75;1.13;;;;;;;;;;5031580;28;20025;-93
2023/10/23 01:54:58;;;;;;;5.20;1.20;;;;;;;;;;5031841;28;20024;-92
2023/10/23 01:57:23;;;;;;;4.25;1.20;;;;;;;;;;5030353;28;20271;-92
2023/10/23 01:59:48;;;;;;;2.00;1.20;;;;;;;;;;5030585;28;20422;-93
2023/10/23 02:02:14;;;;;;;3.60;1.50;;;;;;;;;;5032036;28;20724;-92
2023/10/23 02:04:39;;;;;;;2.72;0.80;;;;;;;;;;5035683;28;20222;-93
2023/10/23 02:07:04;;;;;;;4.23;0.70;;;;;;;;;;5034254;28;20131;-92
2023/10/23 02:09:30;;;;;;;3.17;0.70;;;;;;;;;;5034445;28;20353;-92
2023/10/23 02:11:55;;;;;;;5.80;0.83;;;;;;;;;;5035575;28;20021;-92
2023/10/23 02:14:20;;;;;;;2.83;1.30;;;;;;;;;;5035264;28;20263;-92
2023/10/23 02:16:45;;;;;;;4.28;0.63;;;;;;;;;;5035513;28;20379;-92
2023/10/23 02:19:11;;;;;;;2.35;0.60;;;;;;;;;;5034184;28;20017;-92
2023/10/23 02:21:36;;;;;;;3.13;0.57;;;;;;;;;;5035355;28;20055;-93
2023/10/23 02:24:01;;;;;;;2.63;0.50;;;;;;;;;;5035053;28;20096;-92
2023/10/23 02:26:28;;;;;;;2.42;0.65;;;;;;;;;;5035353;28;20037;-92
2023/10/23 02:28:53;;;;;;;3.58;0.80;;;;;;;;;;5033857;28;20072;-92
2023/10/23 02:31:19;;;;;;;2.97;1.40;;;;;;;;;;5033894;28;20142;-93
2023/10/23 02:33:44;;;;;;;2.67;0.80;;;;;;;;;;5033763;28;20259;-92
2023/10/23 02:36:09;;;;;;;5.30;0.90;;;;;;;;;;5034872;28;20105;-93
2023/10/23 02:38:35;;;;;;;2.85;1.10;;;;;;;;;;5033618;28;20294;-92
2023/10/23 02:41:00;;;;;;;4.82;1.13;;;;;;;;;;5034666;28;20025;-93
2023/10/23 02:43:25;;;;;;;8.95;2.22;;;;;;;;;;5034819;28;20028;-93
2023/10/23 02:45:50;;;;;;;5.28;1.10;;;;;;;;;;5033532;28;20121;-92
2023/10/23 02:48:17;;;;;;;5.53;1.40;;;;;;;;;;5034588;28;20069;-92
2023/10/23 02:50:42;;;;;;;9.35;1.40;;;;;;;;;;5033140;28;20267;-92
2023/10/23 02:53:07;;;;;;;7.55;1.60;;;;;;;;;;5034477;28;20017;-92
2023/10/23 02:55:32;;;;;;;9.23;1.70;;;;;;;;;;5034317;28;20031;-93
2023/10/23 02:57:58;;;;;;;9.20;2.03;;;;;;;;;;5032899;28;20076;-92
2023/10/23 03:00:23;;;;;;;7.22;1.90;;;;;;;;;;5054146;28;20258;-92
2023/10/23 03:02:48;;;;;;;6.20;1.80;;;;;;;;;;5052940;28;20025;-92
2023/10/23 03:05:14;;;;;;;4.78;2.10;;;;;;;;;;5052899;28;20048;-92
2023/10/23 03:07:39;;;;;;;12.23;2.17;;;;;;;;;;5053021;28;20025;-92
2023/10/23 03:10:05;;;;;;;9.40;2.73;;;;;;;;;;5054295;28;20024;-93
2023/10/23 03:12:30;;;;;;;5.32;1.50;;;;;;;;;;5052679;28;20273;-92
2023/10/23 03:14:55;;;;;;;5.25;1.55;;;;;;;;;;5053306;28;20027;-91
2023/10/23 03:17:21;;;;;;;6.27;1.90;;;;;;;;;;5052874;28;20036;-91
2023/10/23 03:19:46;;;;;;;7.68;1.90;;;;;;;;;;5053836;28;20620;-92
2023/10/23 03:22:11;;;;;;;4.65;1.40;;;;;;;;;;5053879;28;20356;-92
2023/10/23 03:24:36;;;;;;;7.25;1.65;;;;;;;;;;5053826;28;20029;-92
2023/10/23 03:27:02;;;;;;;5.37;2.10;;;;;;;;;;5053522;28;20055;-93
2023/10/23 03:29:27;;;;;;;4.13;1.60;;;;;;;;;;5052670;28;20603;-92
2023/10/23 03:31:52;;;;;;;4.97;1.70;;;;;;;;;;5053843;28;20041;-92
2023/10/23 03:34:17;;;;;;;7.40;1.90;;;;;;;;;;5053669;28;20316;-92
2023/10/23 03:36:42;;;;;;;8.30;1.40;;;;;;;;;;5052436;28;20262;-91
2023/10/23 03:39:08;;;;;;;10.63;2.13;;;;;;;;;;5053560;28;20479;-93
2023/10/23 03:41:33;;;;;;;5.60;1.70;;;;;;;;;;5052432;28;20772;-92
2023/10/23 03:44:00;;;;;;;11.43;1.80;;;;;;;;;;5053610;28;20349;-92
2023/10/23 03:46:25;;;;;;;14.85;1.95;;;;;;;;;;5052317;28;20641;-92
2023/10/23 03:48:52;;;;;;;7.75;1.90;;;;;;;;;;5053548;28;20035;-92
2023/10/23 03:51:17;;;;;;;12.63;1.80;;;;;;;;;;5052152;28;20017;-92
2023/10/23 03:53:42;;;;;;;13.45;1.50;;;;;;;;;;5052366;28;20146;-92
2023/10/23 03:56:07;;;;;;;13.18;1.80;;;;;;;;;;5052192;28;20086;-92
2023/10/23 03:58:33;;;;;;;12.93;2.27;;;;;;;;;;5052078;28;20062;-92
2023/10/23 04:00:58;;;;;;;8.80;1.60;;;;;;;;;;5053173;28;20290;-92
2023/10/23 04:03:23;;;;;;;11.70;1.53;;;;;;;;;;5051828;28;20467;-89
2023/10/23 04:05:48;;;;;;;10.23;1.60;;;;;;;;;;5051239;28;20280;-91
2023/10/23 04:08:14;;;;;;;17.65;2.25;;;;;;;;;;5051657;28;20044;-90
2023/10/23 04:10:48;;;;;;;9.02;1.73;;;;;;;;;;5053081;28;20031;-90
2023/10/23 04:13:14;;;;;;;13.15;1.88;;;;;;;;;;5051517;28;20017;-89
2023/10/23 04:15:40;;;;;;;7.97;1.65;;;;;;;;;;5053059;28;20017;-90
2023/10/23 04:18:05;;;;;;;11.15;1.38;;;;;;;;;;5052938;28;20370;-91
2023/10/23 04:20:30;;;;;;;9.17;1.57;;;;;;;;;;5052164;28;20013;-90
2023/10/23 04:22:55;;;;;;;20.80;2.15;;;;;;;;;;5051410;28;20262;-90
2023/10/23 04:25:21;;;;;;;9.68;1.60;;;;;;;;;;5052325;28;20028;-90
2023/10/23 04:27:46;;;;;;;7.20;1.60;;;;;;;;;;5050823;28;20024;-91
2023/10/23 04:30:11;;;;;;;9.95;2.30;;;;;;;;;;5052764;28;20025;-90
2023/10/23 04:32:37;;;;;;;15.48;2.83;;;;;;;;;;5052603;28;20017;-88
2023/10/23 04:35:02;;;;;;;11.45;1.75;;;;;;;;;;5050571;28;20040;-90
2023/10/23 04:37:27;;;;;;;8.82;1.75;;;;;;;;;;5051254;28;20111;-91
2023/10/23 04:39:52;;;;;;;16.10;1.83;;;;;;;;;;5052401;28;20163;-90
2023/10/23 04:42:18;;;;;;;10.73;1.40;;;;;;;;;;5052361;28;20273;-90
2023/10/23 04:44:46;;;;;;;8.57;2.37;;;;;;;;;;5052716;28;20374;-90
2023/10/23 04:47:11;;;;;;;14.82;2.42;;;;;;;;;;5052154;28;20281;-89
2023/10/23 04:49:36;;;;;;;6.93;1.53;;;;;;;;;;5051832;28;20383;-90
2023/10/23 04:52:01;;;;;;;14.07;1.60;;;;;;;;;;5052127;28;20590;-91
2023/10/23 04:54:27;;;;;;;7.47;1.65;;;;;;;;;;5052244;28;20021;-91
2023/10/23 04:56:52;;;;;;;7.17;1.93;;;;;;;;;;5052216;28;20017;-91
2023/10/23 04:59:17;;;;;;;9.97;1.70;;;;;;;;;;5051805;28;20242;-90
2023/10/23 05:01:42;;;;;;;9.83;1.67;;;;;;;;;;5050581;28;20265;-90
2023/10/23 05:04:07;;;;;;;9.83;1.67;;;;;;;;;;5051061;28;20245;-90
2023/10/23 05:06:33;;;;;;;7.70;1.40;;;;;;;;;;5051863;28;20301;-90
2023/10/23 05:08:58;;;;;;;14.00;2.23;;;;;;;;;;5050705;28;20017;-90
2023/10/23 05:11:23;;;;;;;6.13;1.60;;;;;;;;;;5051718;28;20353;-90
2023/10/23 05:13:49;;;;;;;11.63;2.03;;;;;;;;;;5051598;28;20403;-90
2023/10/23 05:16:14;;;;;;;16.90;2.13;;;;;;;;;;5051862;28;20736;-90
2023/10/23 05:18:40;;;;;;;13.48;2.15;;;;;;;;;;5050982;28;20025;-91
2023/10/23 05:21:06;;;;;;;16.85;3.17;;;;;;;;;;5051765;28;20115;-90
2023/10/23 05:23:31;;;;;;;10.07;2.03;;;;;;;;;;5051671;28;20025;-90
2023/10/23 05:25:56;;;;;;;15.73;2.35;;;;;;;;;;5051673;28;20486;-90
2023/10/23 05:28:22;;;;;;;11.48;2.05;;;;;;;;;;5051542;28;20060;-90
2023/10/23 05:30:49;;;;;;;7.25;1.90;;;;;;;;;;5051461;28;20028;-90
2023/10/23 05:33:14;;;;;;;18.45;2.30;;;;;;;;;;5051376;28;20024;-90
2023/10/23 05:35:40;;;;;;;14.67;2.63;;;;;;;;;;5051001;28;20016;-90
2023/10/23 05:38:05;;;;;;;14.00;1.98;;;;;;;;;;5051371;28;20311;-90
2023/10/23 05:40:30;;;;;;;10.70;2.17;;;;;;;;;;5051636;28;20032;-90
2023/10/23 05:42:55;;;;;;;9.77;2.47;;;;;;;;;;5051447;28;20253;-89
2023/10/23 05:45:20;;;;;;;13.73;2.20;;;;;;;;;;5051298;28;20250;-89
2023/10/23 05:47:46;;;;;;;10.93;2.10;;;;;;;;;;5050197;28;20270;-89
2023/10/23 05:50:11;;;;;;;18.57;2.37;;;;;;;;;;5049382;28;20017;-89
2023/10/23 05:52:36;;;;;;;16.08;2.10;;;;;;;;;;5051344;28;20265;-89
2023/10/23 05:55:04;;;;;;;14.53;2.37;;;;;;;;;;5051362;28;20017;-89
2023/10/23 05:57:29;;;;;;;7.70;1.92;;;;;;;;;;5051397;28;20253;-90
2023/10/23 05:59:54;;;;;;;14.00;2.55;;;;;;;;;;5050010;28;20361;-89
2023/10/23 06:02:20;;;;;;;10.77;2.10;;;;;;;;;;5051195;28;20017;-92
2023/10/23 06:04:45;;;;;;;17.70;2.53;;;;;;;;;;5050670;28;20261;-93
2023/10/23 06:07:11;;;;;;;11.70;2.10;;;;;;;;;;5051313;28;20282;-93
2023/10/23 06:09:37;;;;;;;9.13;2.08;;;;;;;;;;5049956;28;20652;-92
2023/10/23 06:12:02;;;;;;;12.17;2.93;;;;;;;;;;5051406;28;20075;-92
2023/10/23 06:14:27;;;;;;;9.88;3.00;;;;;;;;;;5051124;28;20303;-92
2023/10/23 06:16:53;;;;;;;11.25;2.35;;;;;;;;;;5031989;28;20061;-93
2023/10/23 06:19:18;;;;;;;18.37;3.00;;;;;;;;;;5030152;28;20076;-92
2023/10/23 06:21:43;;;;;;;8.43;2.08;;;;;;;;;;5031207;28;20263;-93
2023/10/23 06:24:08;;;;;;;10.83;2.63;;;;;;;;;;5030042;28;20028;-93
2023/10/23 06:26:34;;;;;;;12.57;2.17;;;;;;;;;;5029596;28;20286;-93
2023/10/23 06:28:59;;;;;;;12.63;2.28;;;;;;;;;;5029972;28;20018;-92
2023/10/23 06:31:24;;;;;;;6.93;2.22;;;;;;;;;;5028535;28;20029;-93
2023/10/23 06:33:51;;;;;;;13.63;2.67;;;;;;;;;;5029426;28;20056;-92
2023/10/23 06:36:16;;;;;;;10.27;2.67;;;;;;;;;;5029944;28;20271;-92
2023/10/23 06:38:41;;;;;;;7.23;2.17;;;;;;;;;;5031077;28;20022;-93
2023/10/23 06:41:07;;;;;;;7.20;2.13;;;;;;;;;;5029912;28;20266;-93
2023/10/23 06:43:33;;;;;;;9.07;1.80;;;;;;;;;;5029963;28;20266;-92
2023/10/23 06:45:58;;;;;;;15.45;2.58;;;;;;;;;;5029568;28;20017;-93
2023/10/23 06:48:23;;;;;;;10.57;2.30;;;;;;;;;;5031075;28;20083;-90
2023/10/23 06:50:49;;;;;;;12.95;2.47;;;;;;;;;;5032403;28;20021;-95
2023/10/23 06:53:14;;;;;;;10.23;2.40;;;;;;;;;;5032865;28;20395;-91
2023/10/23 06:55:49;;;;;;;11.45;3.33;;;;;;;;;;5034573;28;20744;-91
2023/10/23 06:58:14;;;;;;;15.82;2.63;;;;;;;;;;5033217;28;20100;-91
2023/10/23 07:00:39;;;;;;;6.68;1.90;;;;;;;;;;5032687;28;20548;-91
2023/10/23 07:03:04;;;;;;;12.57;2.38;;;;;;;;;;5034348;28;20017;-91
2023/10/23 07:05:30;;;;;;;10.83;2.60;;;;;;;;;;5033881;28;20028;-91
2023/10/23 07:07:55;;;;;;;12.93;2.20;;;;;;;;;;5034323;28;20771;-91
2023/10/23 07:10:20;;;;;;;14.30;2.93;;;;;;;;;;5033310;28;20450;-91
2023/10/23 07:12:45;;;;;;;14.37;2.80;;;;;;;;;;5033776;28;20624;-91
2023/10/23 07:15:10;;;;;;;11.93;2.30;;;;;;;;;;5032974;28;20660;-92
2023/10/23 07:17:36;;;;;;;14.53;1.97;;;;;;;;;;5034295;28;20768;-91
2023/10/23 07:20:01;;;;;;;12.20;2.33;;;;;;;;;;5034165;28;20250;-91
2023/10/23 07:22:26;;;;;;;11.02;2.28;;;;;;;;;;5034121;28;20269;-92
2023/10/23 07:24:54;;;;;;;14.23;2.27;;;;;;;;;;5032859;28;20112;-92
2023/10/23 07:27:19;;;;;;;14.88;3.38;;;;;;;;;;5034138;28;20340;-94
2023/10/23 07:29:44;;;;;;;13.73;2.25;;;;;;;;;;5032731;28;20017;-90
2023/10/23 07:32:09;;;;;;;15.20;2.43;;;;;;;;;;5034014;28;20021;-88
2023/10/23 07:34:35;;;;;;;7.68;2.42;;;;;;;;;;5034068;28;20740;-93
2023/10/23 07:37:00;;;;;;;11.40;1.80;;;;;;;;;;5032672;28;20032;-91
2023/10/23 07:39:25;;;;;;;9.60;2.35;;;;;;;;;;5033949;28;20014;-93
2023/10/23 07:41:50;;;;;;;9.00;2.37;;;;;;;;;;5030785;28;20554;-93
2023/10/23 07:44:16;;;;;;;11.35;2.22;;;;;;;;;;5032919;28;20258;-93
2023/10/23 07:46:43;;;;;;;11.93;2.45;;;;;;;;;;5033762;28;20033;-93
2023/10/23 07:49:09;;;;;;;8.00;2.63;;;;;;;;;;5031939;28;20013;-93
2023/10/23 07:51:34;;;;;;;8.23;3.13;;;;;;;;;;5031989;28;20083;-92
2023/10/23 07:53:59;;;;;;;13.77;3.87;;;;;;;;;;5031203;28;20025;-92
2023/10/23 07:56:24;;;;;;;7.60;2.70;;;;;;;;;;5032599;28;20342;-90
2023/10/23 07:58:51;;;;;;;28.03;2.87;;;;;;;;;;5033370;28;20262;-89
2023/10/23 08:01:16;;;;;;;11.55;2.50;;;;;;;;;;5031523;28;20286;-90
2023/10/23 08:03:41;;;;;;;16.23;3.25;;;;;;;;;;5032950;28;20056;-91
2023/10/23 08:06:08;;;;;;;17.65;4.75;;;;;;;;;;5033371;28;20036;-91
2023/10/23 08:08:34;;;;;;;20.48;2.45;;;;;;;;;;5033561;28;20443;-91
2023/10/23 08:10:59;;;;;;;8.70;2.58;;;;;;;;;;5032340;28;20065;-90
2023/10/23 08:13:25;;;;;;;15.50;2.25;;;;;;;;;;5017260;28;20026;-91
2023/10/23 08:15:50;;;;;;;6.20;1.88;;;;;;;;;;5012106;28;20037;-91
2023/10/23 08:18:15;;;;;;;12.10;2.00;;;;;;;;;;5013575;28;20021;-90
2023/10/23 08:20:40;;;;;;;7.07;1.92;;;;;;;;;;5013131;28;20021;-89
2023/10/23 08:23:06;;;;;;;14.67;3.03;;;;;;;;;;5013282;28;20149;-90
2023/10/23 08:25:31;;;;;;;15.73;2.45;;;;;;;;;;5012988;28;20613;-90
2023/10/23 08:27:56;;;;;;;9.10;1.85;;;;;;;;;;5011204;28;20037;-93
2023/10/23 08:30:21;;;;;;;14.33;2.40;;;;;;;;;;5018964;28;20030;-92
2023/10/23 08:32:47;;;;;;;7.93;1.93;;;;;;;;;;5030397;28;20286;-90
2023/10/23 08:35:12;;;;;;;13.73;2.47;;;;;;;;;;5031170;28;20261;-90
2023/10/23 08:37:37;;;;;;;17.13;2.53;;;;;;;;;;5032520;28;20259;-90
2023/10/23 08:40:06;;;;;;;14.90;3.33;;;;;;;;;;5032926;28;20265;-91
2023/10/23 08:42:32;;;;;;;19.45;4.57;;;;;;;;;;5031572;28;20309;-89
2023/10/23 08:44:58;;;;;;;12.18;3.03;;;;;;;;;;5032615;28;20033;-89
2023/10/23 08:47:23;;;;;;;15.95;4.28;;;;;;;;;;5032323;28;20472;-90
2023/10/23 08:49:51;;;;;;;8.88;2.67;;;;;;;;;;5032201;28;20064;-90
2023/10/23 08:52:18;;;;;;;13.63;3.25;;;;;;;;;;5029622;28;20040;-90
2023/10/23 08:54:44;;;;;;;19.88;3.33;;;;;;;;;;5031549;28;20059;-89
2023/10/23 08:57:09;;;;;;;11.63;2.20;;;;;;;;;;5031119;28;20029;-90
2023/10/23 08:59:35;;;;;;;16.42;3.97;;;;;;;;;;5032129;28;20100;-90
2023/10/23 09:02:01;;;;;;;12.95;3.42;;;;;;;;;;5030572;28;20026;-90
2023/10/23 09:04:26;;;;;;;14.18;2.10;;;;;;;;;;5032117;28;20021;-89
2023/10/23 09:06:52;;;;;;;17.00;2.90;;;;;;;;;;5031978;28;20035;-90
2023/10/23 09:09:18;;;;;;;15.68;2.05;;;;;;;;;;5032062;28;20830;-90
2023/10/23 09:11:45;;;;;;;8.50;2.00;;;;;;;;;;5029602;28;20395;-90
2023/10/23 09:14:11;;;;;;;12.35;2.20;;;;;;;;;;5030639;28;20017;-92
2023/10/23 09:16:36;;;;;;;13.38;2.63;;;;;;;;;;5031680;28;20020;-91
2023/10/23 09:19:02;;;;;;;10.20;1.73;;;;;;;;;;5032188;28;20430;-92
2023/10/23 09:21:28;;;;;;;14.77;2.13;;;;;;;;;;5030185;28;20032;-91
2023/10/23 09:23:54;;;;;;;12.82;2.40;;;;;;;;;;5030079;28;20116;-91
2023/10/23 09:26:20;;;;;;;16.00;2.38;;;;;;;;;;5030375;28;20083;-90
2023/10/23 09:28:46;;;;;;;14.00;2.35;;;;;;;;;;5031392;28;20022;-91
2023/10/23 09:31:12;;;;;;;11.98;2.10;;;;;;;;;;5030576;28;20104;-90
2023/10/23 09:33:37;;;;;;;12.32;3.00;;;;;;;;;;5031514;28;20105;-90
2023/10/23 09:36:03;;;;;;;15.50;2.67;;;;;;;;;;5031986;28;20072;-92
2023/10/23 09:38:29;;;;;;;9.88;2.00;;;;;;;;;;5031482;28;20387;-92
2023/10/23 09:40:57;;;;;;;12.40;1.67;;;;;;;;;;5030497;28;20100;-90
2023/10/23 09:43:23;;;;;;;15.70;1.92;;;;;;;;;;5030382;28;20017;-91
2023/10/23 09:45:48;;;;;;;13.23;2.60;;;;;;;;;;5031919;28;20539;-93
2023/10/23 09:48:14;;;;;;;19.42;2.60;;;;;;;;;;5030086;28;20030;-90
2023/10/23 09:50:42;;;;;;;10.10;1.80;;;;;;;;;;5031737;28;20460;-91
2023/10/23 09:53:09;;;;;;;13.77;2.22;;;;;;;;;;5029879;28;20029;-91
2023/10/23 09:55:35;;;;;;;13.48;2.47;;;;;;;;;;5031494;28;20013;-91
2023/10/23 09:58:04;;;;;;;10.90;2.35;;;;;;;;;;5031667;28;20445;-89
2023/10/23 10:00:30;;;;;;;10.77;2.35;;;;;;;;;;5031660;28;20018;-92
2023/10/23 10:02:57;;;;;;;15.52;2.85;;;;;;;;;;5031416;28;20037;-92
2023/10/23 10:05:30;;;;;;;10.23;2.35;;;;;;;;;;5031260;28;20014;-92
2023/10/23 10:08:08;;;;;;;7.70;1.70;;;;;;;;;;5031485;28;20105;-91
2023/10/23 10:10:35;;;;;;;16.58;2.25;;;;;;;;;;5030025;28;20017;-92
2023/10/23 10:13:01;;;;;;;17.40;2.33;;;;;;;;;;5030912;28;20135;-92
2023/10/23 10:15:26;;;;;;;10.70;1.88;;;;;;;;;;5030077;28;20547;-94
2023/10/23 10:17:51;;;;;;;11.90;2.35;;;;;;;;;;5031123;28;20021;-93
2023/10/23 10:20:21;;;;;;;12.52;2.17;;;;;;;;;;5030593;28;20041;-92
2023/10/23 10:22:48;;;;;;;7.20;1.75;;;;;;;;;;5030932;28;20112;-92
2023/10/23 10:25:15;;;;;;;9.38;1.85;;;;;;;;;;5033092;28;20495;-92
2023/10/23 10:27:40;;;;;;;7.95;1.63;;;;;;;;;;5015278;28;20038;-92
2023/10/23 10:30:26;;;;;;;11.95;2.17;;;;;;;;;;5023022;28;20542;-92
2023/10/23 10:32:55;;;;;;;14.18;1.98;;;;;;;;;;5034872;28;20018;-92
2023/10/23 10:35:27;;;;;;;16.67;2.47;;;;;;;;;;5034935;28;20018;-93
2023/10/23 10:37:58;;;;;;;14.70;2.03;;;;;;;;;;5033442;28;20017;-93
2023/10/23 10:40:23;;;;;;;12.60;2.97;;;;;;;;;;5034616;28;20018;-94
2023/10/23 10:42:50;;;;;;;14.23;2.90;;;;;;;;;;5034922;28;20028;-95
2023/10/23 10:45:16;;;;;;;10.70;1.80;;;;;;;;;;5033474;28;20270;-93
2023/10/23 10:47:49;;;;;;;10.07;2.30;;;;;;;;;;5033985;28;20487;-93
2023/10/23 10:50:30;;;;;;;8.65;1.80;;;;;;;;;;5034582;28;20597;-95
2023/10/23 10:52:58;;;;;;;13.18;2.70;;;;;;;;;;5032828;28;20023;-94
2023/10/23 10:55:24;;;;;;;11.77;1.67;;;;;;;;;;5033527;28;20025;-95
2023/10/23 10:57:49;;;;;;;17.08;2.00;;;;;;;;;;5040883;28;20502;-96
2023/10/23 11:00:15;;;;;;;26.83;2.60;;;;;;;;;;5033363;28;20022;-95
2023/10/23 11:02:40;;;;;;;19.27;2.95;;;;;;;;;;5033164;28;20041;-95
2023/10/23 11:05:08;;;;;;;9.23;2.33;;;;;;;;;;5032978;28;20017;-93
2023/10/23 11:07:33;;;;;;;14.40;2.25;;;;;;;;;;5034143;28;20038;-93
2023/10/23 11:09:59;;;;;;;17.87;2.77;;;;;;;;;;5033571;28;20013;-93
2023/10/23 11:12:24;;;;;;;13.97;2.80;;;;;;;;;;5032678;28;20263;-93
2023/10/23 11:14:49;;;;;;;26.33;3.95;;;;;;;;;;5034147;28;20255;-93
2023/10/23 11:17:14;;;;;;;14.45;2.33;;;;;;;;;;5033980;28;20359;-93
2023/10/23 11:19:44;;;;;;;9.32;1.60;;;;;;;;;;5032781;28;20021;-94
2023/10/23 11:22:10;;;;;;;16.92;2.47;;;;;;;;;;5034039;28;20084;-94
2023/10/23 11:24:35;;;;;;;11.13;2.05;;;;;;;;;;5033182;28;20025;-94
2023/10/23 11:27:01;;;;;;;11.10;2.08;;;;;;;;;;5032603;28;20030;-95
2023/10/23 11:29:26;;;;;;;11.57;2.38;;;;;;;;;;5033961;28;20017;-95
2023/10/23 11:31:52;;;;;;;9.40;1.75;;;;;;;;;;5034273;28;20025;-94
2023/10/23 11:34:17;;;;;;;10.93;1.55;;;;;;;;;;5032845;28;20025;-94
2023/10/23 11:36:43;;;;;;;11.95;1.90;;;;;;;;;;5032107;28;20095;-94
2023/10/23 11:39:08;;;;;;;9.90;1.70;;;;;;;;;;5030792;28;20112;-96
2023/10/23 11:41:34;;;;;;;7.18;2.22;;;;;;;;;;5033104;28;20338;-95
2023/10/23 11:44:00;;;;;;;12.32;2.33;;;;;;;;;;5032495;28;20426;-95
2023/10/23 11:46:25;;;;;;;10.13;2.10;;;;;;;;;;5032627;28;20029;-94
2023/10/23 11:48:50;;;;;;;8.77;1.70;;;;;;;;;;5032434;28;20037;-92
2023/10/23 11:51:16;;;;;;;14.02;2.65;;;;;;;;;;5032234;28;20022;-93
2023/10/23 11:53:41;;;;;;;7.93;1.80;;;;;;;;;;5018287;28;20022;-94
2023/10/23 11:56:07;;;;;;;16.75;2.03;;;;;;;;;;5012954;28;20014;-93
2023/10/23 11:58:32;;;;;;;9.02;1.55;;;;;;;;;;5013595;28;20021;-94
2023/10/23 12:00:57;;;;;;;5.85;1.90;;;;;;;;;;5013702;28;20449;-93
2023/10/23 12:03:23;;;;;;;12.57;1.77;;;;;;;;;;5013566;28;20029;-93
2023/10/23 12:05:48;;;;;;;11.77;1.87;;;;;;;;;;5013384;28;20287;-91
2023/10/23 12:08:13;;;;;;;4.60;1.23;;;;;;;;;;5012110;28;20274;-93
2023/10/23 12:10:38;;;;;;;8.07;2.05;;;;;;;;;;5014297;28;20335;-95
2023/10/23 12:13:03;;;;;;;8.50;1.40;;;;;;;;;;5032676;28;20375;-93
2023/10/23 12:15:29;;;;;;;10.15;2.60;;;;;;;;;;5033043;28;20736;-95
2023/10/23 12:18:02;;;;;;;14.20;2.00;;;;;;;;;;5032762;28;20108;-93
2023/10/23 12:20:28;;;;;;;6.28;1.73;;;;;;;;;;5032705;28;20059;-93
2023/10/23 12:22:53;;;;;;;9.00;1.60;;;;;;;;;;5033222;28;20018;-94
2023/10/23 12:25:19;;;;;;;12.52;2.08;;;;;;;;;;5031953;28;20480;-93
2023/10/23 12:27:44;;;;;;;12.18;1.67;;;;;;;;;;5032856;28;20438;-94
2023/10/23 12:30:10;;;;;;;7.40;1.63;;;;;;;;;;5032550;28;20028;-93
2023/10/23 12:32:36;;;;;;;10.38;1.30;;;;;;;;;;5032823;28;20495;-93
2023/10/23 12:35:04;;;;;;;10.23;1.50;;;;;;;;;;5032846;28;20507;-94
2023/10/23 12:37:30;;;;;;;8.93;1.60;;;;;;;;;;5031377;28;20022;-94
2023/10/23 12:39:57;;;;;;;6.22;1.77;;;;;;;;;;5032111;28;20144;-93
2023/10/23 12:42:22;;;;;;;7.53;1.13;;;;;;;;;;5031512;28;20026;-94
2023/10/23 12:44:48;;;;;;;10.57;1.65;;;;;;;;;;5032849;28;20021;-94
2023/10/23 12:47:14;;;;;;;8.13;1.60;;;;;;;;;;5031761;28;20039;-94
2023/10/23 12:49:39;;;;;;;13.27;1.70;;;;;;;;;;5032878;28;20408;-92
2023/10/23 12:52:04;;;;;;;6.80;1.37;;;;;;;;;;5032181;28;20017;-96
2023/10/23 12:54:30;;;;;;;18.83;3.55;;;;;;;;;;5030716;28;20313;-93
2023/10/23 12:56:57;;;;;;;9.68;1.88;;;;;;;;;;5030446;28;20361;-94
2023/10/23 12:59:22;;;;;;;12.48;1.85;;;;;;;;;;5031366;28;20018;-94
2023/10/23 13:01:47;;;;;;;11.23;1.70;;;;;;;;;;5032540;28;20079;-95
2023/10/23 13:04:13;;;;;;;8.13;1.47;;;;;;;;;;5030868;28;20057;-95
2023/10/23 13:06:38;;;;;;;10.80;1.53;;;;;;;;;;5031035;28;20320;-94
2023/10/23 13:09:03;;;;;;;19.03;2.30;;;;;;;;;;5030076;28;20290;-95
2023/10/23 13:11:30;;;;;;;10.82;2.28;;;;;;;;;;5032315;28;20266;-94
2023/10/23 13:13:55;;;;;;;9.52;2.20;;;;;;;;;;5030958;28;20032;-95
2023/10/23 13:16:22;;;;;;;12.85;1.85;;;;;;;;;;5031357;28;20040;-93
2023/10/23 13:18:47;;;;;;;5.63;1.38;;;;;;;;;;5031728;28;20190;-94
2023/10/23 13:21:12;;;;;;;10.30;1.80;;;;;;;;;;5032010;28;20548;-93
2023/10/23 13:23:38;;;;;;;8.90;1.33;;;;;;;;;;5030916;28;20064;-92
2023/10/23 13:26:03;;;;;;;8.40;2.00;;;;;;;;;;5031724;28;20267;-91
2023/10/23 13:28:29;;;;;;;10.85;1.73;;;;;;;;;;5031759;28;20563;-92
2023/10/23 13:30:54;;;;;;;14.20;1.88;;;;;;;;;;5029772;28;20033;-93
2023/10/23 13:33:19;;;;;;;7.57;1.63;;;;;;;;;;5030086;28;20025;-93
2023/10/23 13:35:44;;;;;;;11.37;2.03;;;;;;;;;;5031980;28;20798;-94
2023/10/23 13:38:12;;;;;;;11.33;1.70;;;;;;;;;;5030238;28;20633;-93
2023/10/23 13:40:37;;;;;;;11.35;2.40;;;;;;;;;;5029719;28;20691;-96
2023/10/23 13:43:02;;;;;;;6.47;1.43;;;;;;;;;;5029951;28;20539;-93
2023/10/23 13:45:28;;;;;;;14.32;2.20;;;;;;;;;;5034085;28;20353;-93
2023/10/23 13:47:53;;;;;;;11.38;1.63;;;;;;;;;;5033750;28;20029;-93
2023/10/23 13:50:18;;;;;;;9.60;1.70;;;;;;;;;;5032302;28;20033;-93
2023/10/23 13:52:43;;;;;;;9.98;2.10;;;;;;;;;;5031286;28;20270;-91
2023/10/23 13:55:10;;;;;;;14.87;2.73;;;;;;;;;;5031115;28;20032;-92
2023/10/23 13:57:35;;;;;;;12.70;1.92;;;;;;;;;;5031746;28;20279;-95
2023/10/23 14:00:00;;;;;;;6.03;1.57;;;;;;;;;;5032643;28;20025;-95
2023/10/23 14:02:26;;;;;;;10.37;1.97;;;;;;;;;;5034267;28;20267;-94
2023/10/23 14:04:51;;;;;;;8.07;1.57;;;;;;;;;;5032906;28;20366;-92
2023/10/23 14:07:16;;;;;;;10.93;2.15;;;;;;;;;;5037053;28;20351;-92
2023/10/23 14:09:41;;;;;;;14.37;1.60;;;;;;;;;;5037335;28;20017;-93
2023/10/23 14:12:07;;;;;;;9.00;1.73;;;;;;;;;;5035470;28;20626;-92
2023/10/23 14:14:32;;;;;;;21.25;4.30;;;;;;;;;;5035381;28;20721;-92
2023/10/23 14:16:58;;;;;;;11.90;1.67;;;;;;;;;;5035416;28;20136;-92
2023/10/23 14:19:23;;;;;;;9.95;1.95;;;;;;;;;;5034932;28;20272;-92
2023/10/23 14:21:48;;;;;;;24.80;3.90;;;;;;;;;;5030285;28;20025;-91
2023/10/23 14:24:14;;;;;;;8.50;2.33;;;;;;;;;;5033971;28;20092;-91
2023/10/23 14:26:40;;;;;;;10.73;1.75;;;;;;;;;;5035169;28;20034;-94